Ne plus se rappeler de moi
Bonjour et Bienvenue
Pas de session ouverte
Jeudi 02/07/2015
d:\inetpub\wwwroot\acrroussillon\reservation\ACR\IMAGES\IMG1.JPGd:\inetpub\wwwroot\acrroussillon\reservation\ACR\IMAGES\IMG2.JPGd:\inetpub\wwwroot\acrroussillon\reservation\ACR/IMAGES/IMG3.jpg
00:00:00
Horaires du 02/07/2015 (Données à titre indicatif seulement).
Lever du soleil : 06h15 - Coucher du soleil : 21h30 (Heure Locale)
Jour aéronautique : 05h45 - Nuit aéronautique : 22h00 (Heure Locale)
Planning des réservations des aéronefs
Planning des réservations des aéronefs
2015/07/02 21:00
LFMP 022100Z AUTO 36006KT CAVOK 24/18 Q1022
Planning des réservations des aéronefs
2015/07/02 18:21
TAF LFMP 021700Z 0218/0318 12010KT CAVOK
BECMG 0218/0221 VRB03KT
TEMPO 0303/0309 BKN008
BECMG 0309/0311 10015KT
TEMPO 0312/0318 14020G30KT
Informations sur les aéronefs
Informations sur les aéronefs
Modifications des Types de vols
ATTENTION PLUS DE PAIEMENT EN LIGNE DEPUIS LA MAISON
AEROCLUB DU ROUSSILLON. AVENUE MAURICE BELLONTE. 66000 PERPIGNAN. Tel : 04.68.73.48.18 Fax : 09.55.16.18.97 Courriel : aeroclub-roussillon@hotmail.fr
 METAR / TAF
LIENS UTILES
envoyer un e-mail
d:\inetpub\wwwroot\acrroussillon\reservation\ACR/IMAGES/Logo.jpg
Identifiez vous pour interaction
d:\inetpub\wwwroot\acrroussillon\reservation\ACR/IMAGES/Logo.jpg
Aéro-Club du Roussillon